sensor_id;sensor_type;location;lat;lon;timestamp;pressure;altitude;pressure_sealevel;temperature;humidity
40920;BME280;26652;50.280;19.026;2023-06-22T00:00:15;98495.34;;;22.91;90.36
40920;BME280;26652;50.280;19.026;2023-06-22T00:02:35;98499.75;;;22.85;90.10
40920;BME280;26652;50.280;19.026;2023-06-22T00:04:36;98491.69;;;22.81;90.65
40920;BME280;26652;50.280;19.026;2023-06-22T00:06:37;98484.66;;;22.77;90.83
40920;BME280;26652;50.280;19.026;2023-06-22T00:08:38;98487.81;;;22.79;90.43
40920;BME280;26652;50.280;19.026;2023-06-22T00:10:39;98486.19;;;22.73;90.82
40920;BME280;26652;50.280;19.026;2023-06-22T00:12:39;98508.84;;;22.93;90.71
40920;BME280;26652;50.280;19.026;2023-06-22T00:14:40;98491.13;;;22.69;91.72
40920;BME280;26652;50.280;19.026;2023-06-22T00:16:41;98508.84;;;22.82;91.19
40920;BME280;26652;50.280;19.026;2023-06-22T00:18:43;98500.97;;;22.72;91.74
40920;BME280;26652;50.280;19.026;2023-06-22T00:20:47;98494.72;;;22.63;92.42
40920;BME280;26652;50.280;19.026;2023-06-22T00:22:48;98504.09;;;22.74;92.22
40920;BME280;26652;50.280;19.026;2023-06-22T00:24:48;98489.78;;;22.62;92.50
40920;BME280;26652;50.280;19.026;2023-06-22T00:26:49;98505.59;;;22.60;93.54
40920;BME280;26652;50.280;19.026;2023-06-22T00:28:50;98509.50;;;22.63;92.41
40920;BME280;26652;50.280;19.026;2023-06-22T00:30:51;98509.75;;;22.56;93.54
40920;BME280;26652;50.280;19.026;2023-06-22T00:32:51;98501.84;;;22.36;93.50
40920;BME280;26652;50.280;19.026;2023-06-22T00:34:52;98520.25;;;22.29;93.96
40920;BME280;26652;50.280;19.026;2023-06-22T00:36:53;98505.47;;;22.30;94.74
40920;BME280;26652;50.280;19.026;2023-06-22T00:38:54;98510.91;;;22.28;95.27
40920;BME280;26652;50.280;19.026;2023-06-22T00:40:54;98501.22;;;22.13;95.41
40920;BME280;26652;50.280;19.026;2023-06-22T00:42:55;98511.16;;;22.27;94.91
40920;BME280;26652;50.280;19.026;2023-06-22T00:44:56;98514.31;;;22.34;94.69
40920;BME280;26652;50.280;19.026;2023-06-22T00:46:57;98487.50;;;22.18;94.90
40920;BME280;26652;50.280;19.026;2023-06-22T00:49:00;98490.13;;;22.23;94.83
40920;BME280;26652;50.280;19.026;2023-06-22T00:51:01;98500.00;;;22.26;94.67
40920;BME280;26652;50.280;19.026;2023-06-22T00:53:06;98487.97;;;22.10;95.66
40920;BME280;26652;50.280;19.026;2023-06-22T00:55:09;98489.44;;;22.01;95.41
40920;BME280;26652;50.280;19.026;2023-06-22T00:57:11;98484.75;;;21.98;95.72
40920;BME280;26652;50.280;19.026;2023-06-22T00:59:13;98495.91;;;21.98;94.89
40920;BME280;26652;50.280;19.026;2023-06-22T01:01:13;98488.63;;;21.95;95.09
40920;BME280;26652;50.280;19.026;2023-06-22T01:03:15;98495.91;;;21.98;94.51
40920;BME280;26652;50.280;19.026;2023-06-22T01:05:18;98525.03;;;22.10;94.36
40920;BME280;26652;50.280;19.026;2023-06-22T01:07:31;98502.28;;;21.80;95.43
40920;BME280;26652;50.280;19.026;2023-06-22T01:09:35;98505.13;;;21.84;95.58
40920;BME280;26652;50.280;19.026;2023-06-22T01:11:48;98504.47;;;21.99;94.81
40920;BME280;26652;50.280;19.026;2023-06-22T01:13:57;98516.78;;;22.13;94.56
40920;BME280;26652;50.280;19.026;2023-06-22T01:16:03;98492.59;;;22.03;93.91
40920;BME280;26652;50.280;19.026;2023-06-22T01:18:06;98508.16;;;22.03;94.38
40920;BME280;26652;50.280;19.026;2023-06-22T01:20:10;98488.84;;;21.88;94.81
40920;BME280;26652;50.280;19.026;2023-06-22T01:22:16;98500.59;;;22.01;94.92
40920;BME280;26652;50.280;19.026;2023-06-22T01:24:30;98485.00;;;21.96;94.27
40920;BME280;26652;50.280;19.026;2023-06-22T01:26:40;98507.69;;;22.11;93.88
40920;BME280;26652;50.280;19.026;2023-06-22T01:28:48;98508.16;;;22.03;94.15
40920;BME280;26652;50.280;19.026;2023-06-22T01:30:50;98488.22;;;21.71;95.48
40920;BME280;26652;50.280;19.026;2023-06-22T01:33:04;98501.72;;;21.73;96.53
40920;BME280;26652;50.280;19.026;2023-06-22T01:35:07;98493.44;;;21.76;95.67
40920;BME280;26652;50.280;19.026;2023-06-22T01:37:09;98506.28;;;21.98;95.48
40920;BME280;26652;50.280;19.026;2023-06-22T01:39:09;98494.75;;;21.84;96.17
40920;BME280;26652;50.280;19.026;2023-06-22T01:41:12;98503.59;;;21.88;96.19
40920;BME280;26652;50.280;19.026;2023-06-22T01:43:13;98490.66;;;21.83;95.22
40920;BME280;26652;50.280;19.026;2023-06-22T01:45:15;98500.81;;;21.95;94.61
40920;BME280;26652;50.280;19.026;2023-06-22T01:47:16;98500.75;;;21.90;94.45
40920;BME280;26652;50.280;19.026;2023-06-22T01:49:18;98496.31;;;21.85;94.54
40920;BME280;26652;50.280;19.026;2023-06-22T01:51:18;98496.75;;;21.67;94.97
40920;BME280;26652;50.280;19.026;2023-06-22T01:53:24;98507.63;;;21.69;95.51
40920;BME280;26652;50.280;19.026;2023-06-22T01:55:24;98493.03;;;21.58;96.15
40920;BME280;26652;50.280;19.026;2023-06-22T01:57:26;98515.06;;;21.60;96.52
40920;BME280;26652;50.280;19.026;2023-06-22T02:01:35;98510.19;;;21.64;96.10
40920;BME280;26652;50.280;19.026;2023-06-22T02:03:43;98504.50;;;21.67;96.01
40920;BME280;26652;50.280;19.026;2023-06-22T02:06:07;98516.88;;;21.60;96.23
40920;BME280;26652;50.280;19.026;2023-06-22T02:08:17;98504.91;;;21.53;96.24
40920;BME280;26652;50.280;19.026;2023-06-22T02:10:22;98525.44;;;21.60;96.53
40920;BME280;26652;50.280;19.026;2023-06-22T02:12:25;98508.28;;;21.54;96.45
40920;BME280;26652;50.280;19.026;2023-06-22T02:14:28;98522.13;;;21.65;96.43
40920;BME280;26652;50.280;19.026;2023-06-22T02:16:31;98519.22;;;21.61;96.01
40920;BME280;26652;50.280;19.026;2023-06-22T02:18:33;98510.69;;;21.61;95.63
40920;BME280;26652;50.280;19.026;2023-06-22T02:20:37;98516.56;;;21.51;95.83
40920;BME280;26652;50.280;19.026;2023-06-22T02:22:37;98523.75;;;21.44;96.60
40920;BME280;26652;50.280;19.026;2023-06-22T02:24:38;98526.81;;;21.41;97.99
40920;BME280;26652;50.280;19.026;2023-06-22T02:26:39;98520.06;;;21.40;97.63
40920;BME280;26652;50.280;19.026;2023-06-22T02:28:42;98530.19;;;21.41;98.37
40920;BME280;26652;50.280;19.026;2023-06-22T02:30:43;98522.66;;;21.40;98.27
40920;BME280;26652;50.280;19.026;2023-06-22T02:32:44;98519.78;;;21.36;98.20
40920;BME280;26652;50.280;19.026;2023-06-22T02:34:45;98526.53;;;21.37;98.08
40920;BME280;26652;50.280;19.026;2023-06-22T02:36:48;98514.06;;;21.34;97.90
40920;BME280;26652;50.280;19.026;2023-06-22T02:38:53;98519.00;;;21.36;98.19
40920;BME280;26652;50.280;19.026;2023-06-22T02:40:54;98533.31;;;21.43;98.14
40920;BME280;26652;50.280;19.026;2023-06-22T02:42:56;98533.56;;;21.42;97.85
40920;BME280;26652;50.280;19.026;2023-06-22T02:44:58;98549.97;;;21.52;97.89
40920;BME280;26652;50.280;19.026;2023-06-22T02:46:59;98538.94;;;21.35;98.33
40920;BME280;26652;50.280;19.026;2023-06-22T02:49:00;98539.38;;;21.27;98.59
40920;BME280;26652;50.280;19.026;2023-06-22T02:51:01;98536.25;;;21.25;99.36
40920;BME280;26652;50.280;19.026;2023-06-22T02:53:01;98547.44;;;21.31;98.61
40920;BME280;26652;50.280;19.026;2023-06-22T02:55:02;98546.72;;;21.35;98.45
40920;BME280;26652;50.280;19.026;2023-06-22T02:57:03;98556.94;;;21.47;98.41
40920;BME280;26652;50.280;19.026;2023-06-22T02:59:04;98540.25;;;21.16;98.90
40920;BME280;26652;50.280;19.026;2023-06-22T03:01:05;98559.00;;;21.23;99.61
40920;BME280;26652;50.280;19.026;2023-06-22T03:03:06;98555.63;;;21.23;99.51
40920;BME280;26652;50.280;19.026;2023-06-22T03:05:07;98558.28;;;21.28;99.02
40920;BME280;26652;50.280;19.026;2023-06-22T03:07:10;98561.16;;;21.31;98.39
40920;BME280;26652;50.280;19.026;2023-06-22T03:09:11;98571.28;;;21.33;98.66
40920;BME280;26652;50.280;19.026;2023-06-22T03:11:12;98569.66;;;21.27;99.18
40920;BME280;26652;50.280;19.026;2023-06-22T03:13:12;98569.22;;;21.13;100.00
40920;BME280;26652;50.280;19.026;2023-06-22T03:15:13;98570.25;;;21.12;100.00
40920;BME280;26652;50.280;19.026;2023-06-22T03:17:14;98570.41;;;21.22;100.00
40920;BME280;26652;50.280;19.026;2023-06-22T03:19:14;98582.63;;;21.27;100.00
40920;BME280;26652;50.280;19.026;2023-06-22T03:21:15;98568.09;;;21.26;99.54
40920;BME280;26652;50.280;19.026;2023-06-22T03:23:17;98569.13;;;21.25;99.61
40920;BME280;26652;50.280;19.026;2023-06-22T03:25:18;98584.22;;;21.33;99.19
40920;BME280;26652;50.280;19.026;2023-06-22T03:27:19;98603.31;;;21.48;99.00
40920;BME280;26652;50.280;19.026;2023-06-22T03:29:20;98594.94;;;21.41;99.00
40920;BME280;26652;50.280;19.026;2023-06-22T03:31:21;98583.75;;;21.36;98.50
40920;BME280;26652;50.280;19.026;2023-06-22T03:33:22;98580.56;;;21.29;98.57
40920;BME280;26652;50.280;19.026;2023-06-22T03:35:22;98589.22;;;21.39;99.00
40920;BME280;26652;50.280;19.026;2023-06-22T03:37:23;98590.00;;;21.40;98.53
40920;BME280;26652;50.280;19.026;2023-06-22T03:39:24;98578.75;;;21.29;99.16
40920;BME280;26652;50.280;19.026;2023-06-22T03:41:25;98584.28;;;21.38;98.73
40920;BME280;26652;50.280;19.026;2023-06-22T03:43:26;98578.56;;;21.36;98.60
40920;BME280;26652;50.280;19.026;2023-06-22T03:45:26;98593.44;;;21.45;98.23
40920;BME280;26652;50.280;19.026;2023-06-22T03:47:27;98596.13;;;21.56;98.70
40920;BME280;26652;50.280;19.026;2023-06-22T03:49:28;98577.84;;;21.40;98.74
40920;BME280;26652;50.280;19.026;2023-06-22T03:51:29;98583.06;;;21.45;98.25
40920;BME280;26652;50.280;19.026;2023-06-22T03:53:30;98566.66;;;21.35;98.30
40920;BME280;26652;50.280;19.026;2023-06-22T03:55:30;98579.66;;;21.40;98.85
40920;BME280;26652;50.280;19.026;2023-06-22T03:57:31;98577.88;;;21.45;98.92
40920;BME280;26652;50.280;19.026;2023-06-22T03:59:32;98573.34;;;21.58;98.01
40920;BME280;26652;50.280;19.026;2023-06-22T04:01:32;98577.84;;;21.67;97.88
40920;BME280;26652;50.280;19.026;2023-06-22T04:03:33;98603.38;;;21.85;96.94
40920;BME280;26652;50.280;19.026;2023-06-22T04:05:34;98591.97;;;21.81;97.31
40920;BME280;26652;50.280;19.026;2023-06-22T04:07:35;98586.72;;;21.76;97.31
40920;BME280;26652;50.280;19.026;2023-06-22T04:09:37;98583.94;;;21.83;96.43
40920;BME280;26652;50.280;19.026;2023-06-22T04:11:38;98570.16;;;21.77;96.53
40920;BME280;26652;50.280;19.026;2023-06-22T04:13:38;98583.97;;;21.88;97.29
40920;BME280;26652;50.280;19.026;2023-06-22T04:15:39;98579.84;;;21.92;96.92
40920;BME280;26652;50.280;19.026;2023-06-22T04:17:40;98572.19;;;22.02;96.45
40920;BME280;26652;50.280;19.026;2023-06-22T04:19:41;98584.97;;;22.14;97.06
40920;BME280;26652;50.280;19.026;2023-06-22T04:21:44;98570.06;;;21.99;96.99
40920;BME280;26652;50.280;19.026;2023-06-22T04:23:46;98586.78;;;22.13;97.56
40920;BME280;26652;50.280;19.026;2023-06-22T04:25:46;98603.97;;;22.25;96.99
40920;BME280;26652;50.280;19.026;2023-06-22T04:27:48;98603.19;;;22.24;96.05
40920;BME280;26652;50.280;19.026;2023-06-22T04:29:49;98608.09;;;22.21;96.25
40920;BME280;26652;50.280;19.026;2023-06-22T04:31:49;98608.09;;;22.21;96.86
40920;BME280;26652;50.280;19.026;2023-06-22T04:33:51;98606.13;;;22.33;96.94
40920;BME280;26652;50.280;19.026;2023-06-22T04:35:52;98613.53;;;22.56;96.20
40920;BME280;26652;50.280;19.026;2023-06-22T04:37:53;98605.72;;;22.51;97.34
40920;BME280;26652;50.280;19.026;2023-06-22T04:39:55;98599.59;;;22.67;95.63
40920;BME280;26652;50.280;19.026;2023-06-22T04:41:56;98609.03;;;22.89;94.84
40920;BME280;26652;50.280;19.026;2023-06-22T04:44:00;98601.56;;;22.97;94.61
40920;BME280;26652;50.280;19.026;2023-06-22T04:46:01;98595.09;;;23.05;95.16
40920;BME280;26652;50.280;19.026;2023-06-22T04:48:05;98591.50;;;23.16;93.94
40920;BME280;26652;50.280;19.026;2023-06-22T04:50:06;98595.97;;;23.36;93.62
40920;BME280;26652;50.280;19.026;2023-06-22T04:52:08;98624.91;;;23.60;92.20
40920;BME280;26652;50.280;19.026;2023-06-22T04:54:09;98615.28;;;23.60;91.21
40920;BME280;26652;50.280;19.026;2023-06-22T04:56:10;98632.47;;;23.82;89.81
40920;BME280;26652;50.280;19.026;2023-06-22T04:58:12;98628.56;;;23.99;88.76
40920;BME280;26652;50.280;19.026;2023-06-22T05:00:17;98627.00;;;24.13;88.45
40920;BME280;26652;50.280;19.026;2023-06-22T05:02:18;98625.44;;;24.53;86.33
40920;BME280;26652;50.280;19.026;2023-06-22T05:04:19;98624.03;;;24.96;83.52
40920;BME280;26652;50.280;19.026;2023-06-22T05:06:19;98629.16;;;25.22;82.29
40920;BME280;26652;50.280;19.026;2023-06-22T05:08:20;98639.16;;;25.54;80.07
40920;BME280;26652;50.280;19.026;2023-06-22T05:10:21;98649.31;;;25.99;77.11
40920;BME280;26652;50.280;19.026;2023-06-22T05:12:22;98645.78;;;26.48;74.36
40920;BME280;26652;50.280;19.026;2023-06-22T05:14:22;98644.66;;;26.83;72.34
40920;BME280;26652;50.280;19.026;2023-06-22T05:16:24;98649.75;;;27.17;70.41
40920;BME280;26652;50.280;19.026;2023-06-22T05:18:25;98652.19;;;27.51;69.44
40920;BME280;26652;50.280;19.026;2023-06-22T05:20:26;98653.84;;;27.85;68.11
40920;BME280;26652;50.280;19.026;2023-06-22T05:22:27;98653.72;;;28.09;66.11
40920;BME280;26652;50.280;19.026;2023-06-22T05:24:27;98652.16;;;27.75;67.21
40920;BME280;26652;50.280;19.026;2023-06-22T05:26:33;98651.63;;;27.35;68.69
40920;BME280;26652;50.280;19.026;2023-06-22T05:28:34;98653.44;;;26.92;71.01
40920;BME280;26652;50.280;19.026;2023-06-22T05:30:35;98645.38;;;26.65;71.96
40920;BME280;26652;50.280;19.026;2023-06-22T05:32:36;98653.13;;;26.46;72.94
40920;BME280;26652;50.280;19.026;2023-06-22T05:34:37;98645.97;;;26.23;73.79
40920;BME280;26652;50.280;19.026;2023-06-22T05:36:38;98645.78;;;26.14;74.85
40920;BME280;26652;50.280;19.026;2023-06-22T05:38:39;98655.50;;;26.08;75.81
40920;BME280;26652;50.280;19.026;2023-06-22T05:40:40;98673.19;;;26.17;75.28
40920;BME280;26652;50.280;19.026;2023-06-22T05:42:40;98661.38;;;25.90;75.97
40920;BME280;26652;50.280;19.026;2023-06-22T05:44:41;98647.97;;;25.68;76.68
40920;BME280;26652;50.280;19.026;2023-06-22T05:46:43;98651.34;;;25.68;77.59
40920;BME280;26652;50.280;19.026;2023-06-22T05:48:48;98649.00;;;25.67;78.03
40920;BME280;26652;50.280;19.026;2023-06-22T05:50:49;98641.66;;;25.74;78.78
40920;BME280;26652;50.280;19.026;2023-06-22T05:52:50;98649.16;;;25.86;77.83
40920;BME280;26652;50.280;19.026;2023-06-22T05:54:51;98638.75;;;25.81;77.40
40920;BME280;26652;50.280;19.026;2023-06-22T05:56:51;98656.94;;;25.91;77.86
40920;BME280;26652;50.280;19.026;2023-06-22T05:58:52;98643.97;;;25.81;78.66
40920;BME280;26652;50.280;19.026;2023-06-22T06:00:53;98648.84;;;25.92;78.34
40920;BME280;26652;50.280;19.026;2023-06-22T06:02:54;98663.25;;;25.85;77.34
40920;BME280;26652;50.280;19.026;2023-06-22T06:04:55;98658.41;;;25.63;77.15
40920;BME280;26652;50.280;19.026;2023-06-22T06:06:56;98663.09;;;25.66;76.79
40920;BME280;26652;50.280;19.026;2023-06-22T06:08:56;98665.72;;;25.66;76.77
40920;BME280;26652;50.280;19.026;2023-06-22T06:10:57;98657.56;;;25.78;76.27
40920;BME280;26652;50.280;19.026;2023-06-22T06:12:59;98671.69;;;25.71;74.16
40920;BME280;26652;50.280;19.026;2023-06-22T06:15:03;98667.72;;;25.79;74.41
40920;BME280;26652;50.280;19.026;2023-06-22T06:17:04;98678.19;;;25.74;73.03
40920;BME280;26652;50.280;19.026;2023-06-22T06:19:05;98677.47;;;25.53;74.05
40920;BME280;26652;50.280;19.026;2023-06-22T06:21:06;98666.06;;;25.44;75.35
40920;BME280;26652;50.280;19.026;2023-06-22T06:23:06;98677.47;;;25.58;74.55
40920;BME280;26652;50.280;19.026;2023-06-22T06:25:08;98674.06;;;25.58;73.99
40920;BME280;26652;50.280;19.026;2023-06-22T06:27:08;98681.09;;;25.62;74.33
40920;BME280;26652;50.280;19.026;2023-06-22T06:29:09;98690.78;;;25.52;74.22
40920;BME280;26652;50.280;19.026;2023-06-22T06:31:10;98694.72;;;25.49;74.86
40920;BME280;26652;50.280;19.026;2023-06-22T06:33:13;98694.22;;;25.42;75.02
40920;BME280;26652;50.280;19.026;2023-06-22T06:35:14;98699.72;;;25.35;75.64
40920;BME280;26652;50.280;19.026;2023-06-22T06:37:17;98678.63;;;25.27;75.18
40920;BME280;26652;50.280;19.026;2023-06-22T06:39:18;98676.25;;;25.35;74.45
40920;BME280;26652;50.280;19.026;2023-06-22T06:41:19;98684.78;;;25.56;73.70
40920;BME280;26652;50.280;19.026;2023-06-22T06:43:20;98682.44;;;25.55;73.48
40920;BME280;26652;50.280;19.026;2023-06-22T06:45:22;98672.03;;;25.50;72.36
40920;BME280;26652;50.280;19.026;2023-06-22T06:47:23;98672.25;;;25.53;73.05
40920;BME280;26652;50.280;19.026;2023-06-22T06:49:24;98677.19;;;25.65;73.34
40920;BME280;26652;50.280;19.026;2023-06-22T06:51:25;98666.50;;;25.66;72.44
40920;BME280;26652;50.280;19.026;2023-06-22T06:53:26;98681.28;;;25.81;71.03
40920;BME280;26652;50.280;19.026;2023-06-22T06:55:27;98679.25;;;25.63;70.31
40920;BME280;26652;50.280;19.026;2023-06-22T06:57:29;98676.69;;;25.58;71.44
40920;BME280;26652;50.280;19.026;2023-06-22T06:59:30;98670.41;;;25.59;72.67
40920;BME280;26652;50.280;19.026;2023-06-22T07:01:31;98686.03;;;25.64;72.00
40920;BME280;26652;50.280;19.026;2023-06-22T07:03:34;98668.34;;;25.56;73.27
40920;BME280;26652;50.280;19.026;2023-06-22T07:05:35;98663.09;;;25.61;72.63
40920;BME280;26652;50.280;19.026;2023-06-22T07:07:36;98656.03;;;25.71;73.48
40920;BME280;26652;50.280;19.026;2023-06-22T07:09:36;98668.47;;;25.85;72.57
40920;BME280;26652;50.280;19.026;2023-06-22T07:11:37;98679.88;;;25.94;72.00
40920;BME280;26652;50.280;19.026;2023-06-22T07:13:38;98672.56;;;25.96;71.16
40920;BME280;26652;50.280;19.026;2023-06-22T07:15:39;98664.75;;;25.96;72.33
40920;BME280;26652;50.280;19.026;2023-06-22T07:17:40;98672.44;;;26.11;71.73
40920;BME280;26652;50.280;19.026;2023-06-22T07:19:41;98681.97;;;26.26;71.29
40920;BME280;26652;50.280;19.026;2023-06-22T07:21:42;98659.88;;;26.13;69.71
40920;BME280;26652;50.280;19.026;2023-06-22T07:23:43;98673.75;;;26.08;68.71
40920;BME280;26652;50.280;19.026;2023-06-22T07:25:44;98673.88;;;26.27;70.14
40920;BME280;26652;50.280;19.026;2023-06-22T07:27:47;98691.41;;;26.56;67.32
40920;BME280;26652;50.280;19.026;2023-06-22T07:29:56;98689.63;;;26.80;65.59
40920;BME280;26652;50.280;19.026;2023-06-22T07:31:57;98680.66;;;26.86;65.30
40920;BME280;26652;50.280;19.026;2023-06-22T07:33:58;98686.19;;;27.09;64.48
40920;BME280;26652;50.280;19.026;2023-06-22T07:35:59;98697.63;;;27.13;61.58
40920;BME280;26652;50.280;19.026;2023-06-22T07:38:00;98699.34;;;27.22;60.60
40920;BME280;26652;50.280;19.026;2023-06-22T07:40:00;98697.41;;;27.33;60.58
40920;BME280;26652;50.280;19.026;2023-06-22T07:42:03;98696.56;;;27.38;59.48
40920;BME280;26652;50.280;19.026;2023-06-22T07:44:03;98685.34;;;27.56;60.03
40920;BME280;26652;50.280;19.026;2023-06-22T07:46:04;98696.97;;;27.68;60.16
40920;BME280;26652;50.280;19.026;2023-06-22T07:48:05;98699.59;;;27.87;59.72
40920;BME280;26652;50.280;19.026;2023-06-22T07:50:06;98703.00;;;27.88;57.68
40920;BME280;26652;50.280;19.026;2023-06-22T07:52:07;98698.03;;;27.86;58.37
40920;BME280;26652;50.280;19.026;2023-06-22T07:54:09;98704.84;;;27.87;60.11
40920;BME280;26652;50.280;19.026;2023-06-22T07:56:10;98703.63;;;27.98;56.49
40920;BME280;26652;50.280;19.026;2023-06-22T07:58:11;98702.97;;;28.07;57.37
40920;BME280;26652;50.280;19.026;2023-06-22T08:00:12;98723.81;;;28.12;55.81
40920;BME280;26652;50.280;19.026;2023-06-22T08:02:16;98701.31;;;28.11;57.06
40920;BME280;26652;50.280;19.026;2023-06-22T08:04:17;98700.72;;;28.00;57.15
40920;BME280;26652;50.280;19.026;2023-06-22T08:06:18;98709.28;;;28.06;56.42
40920;BME280;26652;50.280;19.026;2023-06-22T08:08:18;98705.09;;;28.05;55.44
40920;BME280;26652;50.280;19.026;2023-06-22T08:10:19;98702.78;;;28.17;54.96
40920;BME280;26652;50.280;19.026;2023-06-22T08:12:20;98708.19;;;28.25;54.73
40920;BME280;26652;50.280;19.026;2023-06-22T08:14:23;98725.00;;;28.38;55.67
40920;BME280;26652;50.280;19.026;2023-06-22T08:16:23;98695.16;;;28.20;54.84
40920;BME280;26652;50.280;19.026;2023-06-22T08:18:26;98713.19;;;28.41;55.68
40920;BME280;26652;50.280;19.026;2023-06-22T08:20:28;98729.75;;;28.36;54.52
40920;BME280;26652;50.280;19.026;2023-06-22T08:22:35;98721.78;;;28.09;54.57
40920;BME280;26652;50.280;19.026;2023-06-22T08:24:37;98729.97;;;28.21;54.58
40920;BME280;26652;50.280;19.026;2023-06-22T08:26:38;98722.34;;;28.24;53.48
40920;BME280;26652;50.280;19.026;2023-06-22T08:28:40;98727.78;;;28.28;54.43
40920;BME280;26652;50.280;19.026;2023-06-22T08:30:41;98720.34;;;28.35;53.25
40920;BME280;26652;50.280;19.026;2023-06-22T08:32:44;98724.44;;;28.41;52.96
40920;BME280;26652;50.280;19.026;2023-06-22T08:34:48;98737.09;;;28.53;54.15
40920;BME280;26652;50.280;19.026;2023-06-22T08:36:48;98730.47;;;28.42;52.81
40920;BME280;26652;50.280;19.026;2023-06-22T08:38:52;98724.81;;;28.35;53.31
40920;BME280;26652;50.280;19.026;2023-06-22T08:40:58;98730.69;;;28.26;54.08
40920;BME280;26652;50.280;19.026;2023-06-22T08:43:03;98728.63;;;28.42;54.64
40920;BME280;26652;50.280;19.026;2023-06-22T08:45:04;98739.59;;;28.44;53.89
40920;BME280;26652;50.280;19.026;2023-06-22T08:47:05;98740.25;;;28.36;53.05
40920;BME280;26652;50.280;19.026;2023-06-22T08:49:06;98732.25;;;28.27;53.99
40920;BME280;26652;50.280;19.026;2023-06-22T08:51:07;98728.91;;;28.41;53.71
40920;BME280;26652;50.280;19.026;2023-06-22T08:53:08;98739.22;;;28.51;52.44
40920;BME280;26652;50.280;19.026;2023-06-22T08:55:10;98724.56;;;28.50;52.12
40920;BME280;26652;50.280;19.026;2023-06-22T08:57:11;98750.34;;;28.75;52.85
40920;BME280;26652;50.280;19.026;2023-06-22T08:59:11;98735.75;;;28.55;53.27
40920;BME280;26652;50.280;19.026;2023-06-22T09:01:12;98730.03;;;28.16;53.24
40920;BME280;26652;50.280;19.026;2023-06-22T09:03:15;98728.69;;;28.37;53.98
40920;BME280;26652;50.280;19.026;2023-06-22T09:05:16;98746.13;;;28.60;52.91
40920;BME280;26652;50.280;19.026;2023-06-22T09:07:17;98732.13;;;28.51;52.56
40920;BME280;26652;50.280;19.026;2023-06-22T09:09:25;98723.75;;;28.36;53.38
40920;BME280;26652;50.280;19.026;2023-06-22T09:11:26;98726.13;;;28.51;53.43
40920;BME280;26652;50.280;19.026;2023-06-22T09:13:30;98733.13;;;28.55;52.62
40920;BME280;26652;50.280;19.026;2023-06-22T09:15:32;98750.97;;;28.53;50.79
40920;BME280;26652;50.280;19.026;2023-06-22T09:17:32;98734.06;;;28.46;50.21
40920;BME280;26652;50.280;19.026;2023-06-22T09:19:34;98731.72;;;28.44;51.27
40920;BME280;26652;50.280;19.026;2023-06-22T09:21:35;98730.28;;;28.52;51.38
40920;BME280;26652;50.280;19.026;2023-06-22T09:23:36;98733.06;;;28.74;52.38
40920;BME280;26652;50.280;19.026;2023-06-22T09:25:36;98720.69;;;28.93;51.99
40920;BME280;26652;50.280;19.026;2023-06-22T09:27:38;98712.91;;;28.88;51.01
40920;BME280;26652;50.280;19.026;2023-06-22T09:29:38;98722.34;;;29.03;51.58
40920;BME280;26652;50.280;19.026;2023-06-22T09:31:40;98710.41;;;29.11;50.85
40920;BME280;26652;50.280;19.026;2023-06-22T09:33:41;98712.94;;;29.02;50.12
40920;BME280;26652;50.280;19.026;2023-06-22T09:35:42;98708.66;;;28.92;50.69
40920;BME280;26652;50.280;19.026;2023-06-22T09:37:43;98707.69;;;29.02;52.07
40920;BME280;26652;50.280;19.026;2023-06-22T09:39:44;98713.50;;;28.99;50.56
40920;BME280;26652;50.280;19.026;2023-06-22T09:41:45;98702.06;;;28.95;51.33
40920;BME280;26652;50.280;19.026;2023-06-22T09:43:46;98703.50;;;28.87;51.11
40920;BME280;26652;50.280;19.026;2023-06-22T09:45:46;98694.38;;;28.85;50.54
40920;BME280;26652;50.280;19.026;2023-06-22T09:47:47;98702.44;;;28.88;50.17
40920;BME280;26652;50.280;19.026;2023-06-22T09:49:48;98697.88;;;28.94;50.56
40920;BME280;26652;50.280;19.026;2023-06-22T09:51:49;98691.06;;;28.93;50.05
40920;BME280;26652;50.280;19.026;2023-06-22T09:53:52;98687.19;;;29.04;50.17
40920;BME280;26652;50.280;19.026;2023-06-22T09:55:54;98679.22;;;28.95;49.86
40920;BME280;26652;50.280;19.026;2023-06-22T09:57:55;98693.50;;;29.03;49.91
40920;BME280;26652;50.280;19.026;2023-06-22T09:59:56;98688.25;;;29.03;50.15
40920;BME280;26652;50.280;19.026;2023-06-22T10:01:57;98686.69;;;29.16;49.90
40920;BME280;26652;50.280;19.026;2023-06-22T10:03:57;98692.81;;;29.11;49.01
40920;BME280;26652;50.280;19.026;2023-06-22T10:05:58;98696.38;;;29.15;48.95
40920;BME280;26652;50.280;19.026;2023-06-22T10:07:59;98691.16;;;29.15;49.67
40920;BME280;26652;50.280;19.026;2023-06-22T10:10:00;98703.19;;;29.30;48.20
40920;BME280;26652;50.280;19.026;2023-06-22T10:12:01;98695.31;;;29.30;49.28
40920;BME280;26652;50.280;19.026;2023-06-22T10:14:02;98692.00;;;29.38;49.33
40920;BME280;26652;50.280;19.026;2023-06-22T10:16:04;98683.84;;;29.40;48.09
40920;BME280;26652;50.280;19.026;2023-06-22T10:18:05;98671.78;;;29.39;48.49
40920;BME280;26652;50.280;19.026;2023-06-22T10:20:07;98669.38;;;29.42;49.11
40920;BME280;26652;50.280;19.026;2023-06-22T10:22:13;98674.22;;;29.35;48.90
40920;BME280;26652;50.280;19.026;2023-06-22T10:24:14;98699.22;;;29.46;48.23
40920;BME280;26652;50.280;19.026;2023-06-22T10:26:15;98684.63;;;29.40;47.56
40920;BME280;26652;50.280;19.026;2023-06-22T10:28:16;98680.06;;;29.46;47.39
40920;BME280;26652;50.280;19.026;2023-06-22T10:30:17;98677.72;;;29.44;48.32
40920;BME280;26652;50.280;19.026;2023-06-22T10:32:18;98680.13;;;29.54;48.08
40920;BME280;26652;50.280;19.026;2023-06-22T10:34:18;98669.53;;;29.59;46.80
40920;BME280;26652;50.280;19.026;2023-06-22T10:36:20;98689.97;;;29.49;48.18
40920;BME280;26652;50.280;19.026;2023-06-22T10:38:21;98678.69;;;29.48;47.54